Terminal Aerodrome Forecast
Issued by NWS

Current Version | Previous Version | Graphics & Text | Print | Product List | Glossary On
Versions: 1 2 3 4 5 6 7 8 9 10 11 12 13 14 15 16 17 18 19 20 21 22 23 24 25 26 27
000
FTUS41 KILN 030500 RRA
TAFLCK
TAF
KLCK 030545Z 0306/0406 09003KT P6SM SCT120 OVC250
     FM031200 11004KT P6SM -FZRA OVC050
     FM031500 14008KT P6SM OVC035
     FM031900 18010KT 5SM -SHRA BR BKN018 OVC035
     FM032300 21011KT 4SM -SHRA BR BKN010 OVC030
     FM040500 27010KT 5SM BR OVC012=

USA.gov is the U.S. government's official web portal to all federal, state and local government web resources and services.